createdAt,value
2022-11-05T00:00:05.226Z,82.39
2022-11-05T00:02:55.867Z,82.26
2022-11-05T00:05:46.717Z,82.51
2022-11-05T00:08:37.026Z,82.68
2022-11-05T00:11:17.687Z,82.61
2022-11-05T00:14:08.857Z,82.54
2022-11-05T00:16:43.953Z,82.70
2022-11-05T00:19:16.728Z,82.60
2022-11-05T00:22:07.290Z,82.53
2022-11-05T00:24:57.755Z,82.53
2022-11-05T00:27:32.993Z,82.74
2022-11-05T00:30:05.821Z,82.71
2022-11-05T00:32:38.160Z,82.90
2022-11-05T00:35:10.140Z,82.73
2022-11-05T00:37:47.134Z,82.53
2022-11-05T00:40:21.640Z,82.70
2022-11-05T00:43:12.334Z,82.68
2022-11-05T00:45:44.464Z,82.72
2022-11-05T00:48:35.511Z,82.66
2022-11-05T00:51:08.098Z,82.40
2022-11-05T00:53:40.044Z,82.60
2022-11-05T00:56:11.919Z,82.43
2022-11-05T00:58:43.727Z,82.39
2022-11-05T01:01:15.842Z,82.41
2022-11-05T01:03:51.624Z,82.34
2022-11-05T01:06:24.028Z,82.48
2022-11-05T01:08:55.948Z,82.32
2022-11-05T01:11:33.824Z,82.40
2022-11-05T01:14:08.510Z,82.38
2022-11-05T01:16:40.744Z,82.47
2022-11-05T01:19:12.719Z,82.54
2022-11-05T01:21:44.642Z,82.32
2022-11-05T01:24:16.510Z,82.39
2022-11-05T01:26:48.400Z,82.27
2022-11-05T01:29:20.381Z,82.32
2022-11-05T01:31:52.213Z,82.43
2022-11-05T01:34:24.021Z,82.22
2022-11-05T01:36:55.839Z,82.31
2022-11-05T01:39:27.687Z,82.09
2022-11-05T01:41:59.531Z,81.87
2022-11-05T01:44:52.797Z,82.08
2022-11-05T01:47:30.212Z,82.22
2022-11-05T01:50:06.215Z,81.99
2022-11-05T01:52:38.017Z,82.20
2022-11-05T01:55:10.581Z,82.22
2022-11-05T01:57:42.712Z,82.17
2022-11-05T02:00:15.911Z,82.23
2022-11-05T02:02:48.098Z,82.22
2022-11-05T02:05:20.092Z,82.28
2022-11-05T02:07:52.300Z,82.42
2022-11-05T02:10:24.425Z,82.34
2022-11-05T02:12:56.393Z,82.34
2022-11-05T02:15:48.143Z,82.65
2022-11-05T02:18:44.487Z,82.64
2022-11-05T02:21:37.239Z,82.42
2022-11-05T02:24:33.499Z,82.40
2022-11-05T02:27:11.767Z,82.17
2022-11-05T02:30:08.578Z,82.86
2022-11-05T02:32:47.206Z,82.48
2022-11-05T02:35:27.000Z,82.89
2022-11-05T02:38:17.123Z,82.58
2022-11-05T02:41:25.706Z,82.72
2022-11-05T02:44:07.844Z,82.76
2022-11-05T02:46:55.614Z,82.85
2022-11-05T02:49:36.558Z,82.85
2022-11-05T02:52:20.358Z,82.86
2022-11-05T02:54:54.258Z,82.74
2022-11-05T02:57:29.192Z,82.58
2022-11-05T03:00:06.284Z,82.46
2022-11-05T03:02:38.390Z,82.73
2022-11-05T03:05:10.774Z,82.55
2022-11-05T03:07:48.591Z,82.73
2022-11-05T03:10:26.348Z,82.43
2022-11-05T03:13:15.452Z,82.66
2022-11-05T03:15:59.117Z,82.67
2022-11-05T03:18:33.707Z,82.53
2022-11-05T03:21:09.455Z,82.54
2022-11-05T03:23:56.194Z,82.40
2022-11-05T03:26:40.313Z,82.48
2022-11-05T03:29:18.142Z,82.39
2022-11-05T03:31:52.276Z,82.08
2022-11-05T03:34:30.502Z,82.10
2022-11-05T03:37:04.105Z,82.25
2022-11-05T03:39:47.713Z,82.27
2022-11-05T03:42:25.711Z,82.15
2022-11-05T03:45:00.040Z,82.06
2022-11-05T03:47:35.446Z,81.96
2022-11-05T03:50:15.558Z,82.13
2022-11-05T03:53:17.159Z,82.25
2022-11-05T03:55:59.973Z,82.29
2022-11-05T03:58:32.074Z,82.19
2022-11-05T04:01:04.153Z,82.02
2022-11-05T04:03:36.652Z,82.13
2022-11-05T04:06:28.966Z,82.17
2022-11-05T04:09:19.319Z,81.87
2022-11-05T04:12:10.421Z,82.27
2022-11-05T04:14:42.366Z,82.15
2022-11-05T04:17:14.340Z,82.11
2022-11-05T04:20:04.938Z,82.37
2022-11-05T04:22:55.281Z,82.23
2022-11-05T04:25:27.181Z,82.28
2022-11-05T04:28:02.916Z,82.34
2022-11-05T04:30:34.747Z,82.30
2022-11-05T04:33:11.988Z,82.53
2022-11-05T04:35:46.955Z,82.31
2022-11-05T04:38:19.895Z,82.14
2022-11-05T04:40:51.771Z,82.02
2022-11-05T04:43:24.021Z,82.27
2022-11-05T04:45:56.066Z,82.16
2022-11-05T04:48:27.869Z,82.08
2022-11-05T04:50:59.612Z,82.21
2022-11-05T04:53:31.621Z,81.99
2022-11-05T04:56:15.682Z,82.03
2022-11-05T04:58:47.845Z,81.97
2022-11-05T05:01:22.305Z,81.92
2022-11-05T05:03:55.009Z,81.71
2022-11-05T05:06:26.923Z,81.87
2022-11-05T05:08:58.984Z,81.91
2022-11-05T05:11:30.907Z,81.63
2022-11-05T05:14:02.824Z,81.58
2022-11-05T05:16:34.699Z,81.84
2022-11-05T05:19:06.625Z,81.69
2022-11-05T05:21:38.780Z,81.81
2022-11-05T05:24:13.878Z,81.41
2022-11-05T05:26:48.462Z,81.05
2022-11-05T05:29:20.302Z,81.18
2022-11-05T05:31:52.137Z,80.97
2022-11-05T05:34:23.940Z,80.98
2022-11-05T05:36:55.692Z,80.71
2022-11-05T05:39:27.650Z,80.72
2022-11-05T05:41:59.445Z,80.89
2022-11-05T05:44:31.365Z,80.70
2022-11-05T05:47:03.298Z,80.89
2022-11-05T05:49:35.253Z,80.91
2022-11-05T05:52:07.155Z,81.04
2022-11-05T05:54:42.719Z,80.85
2022-11-05T05:57:15.087Z,80.67
2022-11-05T05:59:47.297Z,80.49
2022-11-05T06:02:19.281Z,80.63
2022-11-05T06:04:51.165Z,80.57
2022-11-05T06:07:23.404Z,80.68
2022-11-05T06:09:55.314Z,80.54
2022-11-05T06:12:29.512Z,80.48
2022-11-05T06:15:01.482Z,80.59
2022-11-05T06:17:33.334Z,80.88
2022-11-05T06:20:05.769Z,80.74
2022-11-05T06:22:38.393Z,80.87
2022-11-05T06:25:10.517Z,80.84
2022-11-05T06:27:42.361Z,80.69
2022-11-05T06:30:14.417Z,80.91
2022-11-05T06:32:46.323Z,80.97
2022-11-05T06:35:18.137Z,80.76
2022-11-05T06:37:50.023Z,81.00
2022-11-05T06:40:21.754Z,81.10
2022-11-05T06:42:54.815Z,81.14
2022-11-05T06:45:26.726Z,80.95
2022-11-05T06:47:59.648Z,80.96
2022-11-05T06:50:31.436Z,80.87
2022-11-05T06:53:04.145Z,80.86
2022-11-05T06:55:36.291Z,80.94
2022-11-05T06:58:08.174Z,80.89
2022-11-05T07:00:40.194Z,80.71
2022-11-05T07:03:13.433Z,80.79
2022-11-05T07:05:48.018Z,80.69
2022-11-05T07:08:19.992Z,81.05
2022-11-05T07:10:51.814Z,80.75
2022-11-05T07:13:23.730Z,80.71
2022-11-05T07:15:58.302Z,80.71
2022-11-05T07:18:30.189Z,80.60
2022-11-05T07:21:02.112Z,80.53
2022-11-05T07:23:33.870Z,80.49
2022-11-05T07:26:05.725Z,80.65
2022-11-05T07:28:37.636Z,80.62
2022-11-05T07:31:09.433Z,80.58
2022-11-05T07:33:41.291Z,80.76
2022-11-05T07:36:14.766Z,80.42
2022-11-05T07:38:46.590Z,80.82
2022-11-05T07:41:18.819Z,80.65
2022-11-05T07:43:50.799Z,80.83
2022-11-05T07:46:22.690Z,80.82
2022-11-05T07:48:54.979Z,81.04
2022-11-05T07:51:26.953Z,80.87
2022-11-05T07:53:58.871Z,81.08
2022-11-05T07:56:30.700Z,80.84
2022-11-05T07:59:02.904Z,80.94
2022-11-05T08:01:34.805Z,80.79
2022-11-05T08:04:06.894Z,80.83
2022-11-05T08:06:38.926Z,80.98
2022-11-05T08:09:10.977Z,80.70
2022-11-05T08:11:42.899Z,80.63
2022-11-05T08:14:14.773Z,80.64
2022-11-05T08:16:46.626Z,80.63
2022-11-05T08:19:18.566Z,80.29
2022-11-05T08:21:50.504Z,80.20
2022-11-05T08:24:22.492Z,80.20
2022-11-05T08:26:54.352Z,80.20
2022-11-05T08:29:26.255Z,80.07
2022-11-05T08:31:58.227Z,79.84
2022-11-05T08:34:30.082Z,79.55
2022-11-05T08:37:02.311Z,79.52
2022-11-05T08:39:34.382Z,79.36
2022-11-05T08:42:06.139Z,79.35
2022-11-05T08:44:37.995Z,79.34
2022-11-05T08:47:09.941Z,79.18
2022-11-05T08:49:41.788Z,79.48
2022-11-05T08:52:13.727Z,79.07
2022-11-05T08:54:45.831Z,79.10
2022-11-05T08:57:17.751Z,78.72
2022-11-05T08:59:49.628Z,78.43
2022-11-05T09:02:21.597Z,78.37
2022-11-05T09:04:53.502Z,78.18
2022-11-05T09:07:25.546Z,78.22
2022-11-05T09:09:57.643Z,77.98
2022-11-05T09:12:29.486Z,77.74
2022-11-05T09:15:01.327Z,77.47
2022-11-05T09:17:33.372Z,77.29
2022-11-05T09:20:07.028Z,77.34
2022-11-05T09:22:43.221Z,77.10
2022-11-05T09:25:16.008Z,77.23
2022-11-05T09:27:48.025Z,77.15
2022-11-05T09:30:20.240Z,76.94
2022-11-05T09:32:52.231Z,77.00
2022-11-05T09:35:24.101Z,77.16
2022-11-05T09:38:00.809Z,76.86
2022-11-05T09:40:38.762Z,76.52
2022-11-05T09:43:19.154Z,76.56
2022-11-05T09:45:54.712Z,76.56
2022-11-05T09:48:29.506Z,76.45
2022-11-05T09:51:01.484Z,76.69
2022-11-05T09:53:36.971Z,76.31
2022-11-05T09:56:21.241Z,76.34
2022-11-05T09:59:01.495Z,76.24
2022-11-05T10:01:36.510Z,76.39
2022-11-05T10:04:20.571Z,75.81
2022-11-05T10:07:04.669Z,75.67
2022-11-05T10:09:46.367Z,75.97
2022-11-05T10:12:47.648Z,75.73
2022-11-05T10:15:23.797Z,75.78
2022-11-05T10:17:59.183Z,75.62
2022-11-05T10:20:36.550Z,75.54
2022-11-05T10:23:17.701Z,74.47
2022-11-05T10:25:55.975Z,75.19
2022-11-05T10:28:29.955Z,75.44
2022-11-05T10:31:07.369Z,75.02
2022-11-05T10:33:52.331Z,74.70
2022-11-05T10:36:29.770Z,74.61
2022-11-05T10:39:09.820Z,74.05
2022-11-05T10:41:54.148Z,73.45
2022-11-05T10:45:01.841Z,72.50
2022-11-05T10:47:52.998Z,72.34
2022-11-05T10:50:27.619Z,72.67
2022-11-05T10:53:15.658Z,72.01
2022-11-05T10:55:52.664Z,72.27
2022-11-05T10:58:29.987Z,72.02
2022-11-05T11:01:05.602Z,72.01
2022-11-05T11:03:39.290Z,72.29
2022-11-05T11:06:24.453Z,72.06
2022-11-05T11:08:58.878Z,71.77
2022-11-05T11:11:37.048Z,71.47
2022-11-05T11:14:11.827Z,71.70
2022-11-05T11:16:45.895Z,71.20
2022-11-05T11:19:20.662Z,69.38
2022-11-05T11:22:04.414Z,64.01
2022-11-05T11:24:46.929Z,63.70
2022-11-05T11:27:22.969Z,63.38
2022-11-05T11:30:05.429Z,63.25
2022-11-05T11:32:39.487Z,62.29
2022-11-05T11:35:22.786Z,59.16
2022-11-05T11:37:55.968Z,61.33
2022-11-05T11:40:33.533Z,57.90
2022-11-05T11:43:22.225Z,54.15
2022-11-05T11:45:57.344Z,57.74
2022-11-05T11:48:35.380Z,56.06
2022-11-05T11:51:19.384Z,50.71
2022-11-05T11:53:57.048Z,51.08
2022-11-05T11:56:30.367Z,52.74
2022-11-05T11:59:15.033Z,48.31
2022-11-05T12:01:55.908Z,48.32
2022-11-05T12:05:18.943Z,45.07
2022-11-05T12:07:54.226Z,48.96
2022-11-05T12:10:35.140Z,48.40
2022-11-05T12:13:19.231Z,49.00
2022-11-05T12:15:59.617Z,50.91
2022-11-05T12:18:38.315Z,51.94
2022-11-05T12:21:51.366Z,53.29
2022-11-05T12:25:00.928Z,54.48
2022-11-05T12:27:38.502Z,54.93
2022-11-05T12:30:19.424Z,56.06
2022-11-05T12:33:21.365Z,56.83
2022-11-05T12:36:02.614Z,57.05
2022-11-05T12:39:01.118Z,58.04
2022-11-05T12:41:57.523Z,58.98
2022-11-05T12:44:35.832Z,58.95
2022-11-05T12:47:26.213Z,59.33
2022-11-05T12:50:03.629Z,59.69
2022-11-05T12:52:45.668Z,60.25
2022-11-05T12:55:25.983Z,60.37
2022-11-05T12:58:10.290Z,60.70
2022-11-05T13:00:45.902Z,60.83
2022-11-05T13:03:23.714Z,60.66
2022-11-05T13:06:05.657Z,60.98
2022-11-05T13:08:48.638Z,61.16
2022-11-05T13:11:30.228Z,60.92
2022-11-05T13:14:42.436Z,61.06
2022-11-05T13:17:17.771Z,61.03
2022-11-05T13:19:54.422Z,61.17
2022-11-05T13:22:34.989Z,61.23
2022-11-05T13:25:28.243Z,61.23
2022-11-05T13:28:34.108Z,61.48
2022-11-05T13:31:10.854Z,61.97
2022-11-05T13:33:44.701Z,62.11
2022-11-05T13:36:56.518Z,62.99
2022-11-05T13:39:46.978Z,63.03
2022-11-05T13:42:37.148Z,63.44
2022-11-05T13:45:22.606Z,63.21
2022-11-05T13:47:59.082Z,63.51
2022-11-05T13:50:56.505Z,64.24
2022-11-05T13:54:03.441Z,64.66
2022-11-05T13:57:29.628Z,64.98
2022-11-05T14:00:21.671Z,64.80
2022-11-05T14:03:01.699Z,64.56
2022-11-05T14:05:36.403Z,64.77
2022-11-05T14:08:16.476Z,65.06
2022-11-05T14:11:05.861Z,65.77
2022-11-05T14:13:40.729Z,65.40
2022-11-05T14:16:21.130Z,65.82
2022-11-05T14:19:09.791Z,65.71
2022-11-05T14:21:48.568Z,66.16
2022-11-05T14:24:23.337Z,66.16
2022-11-05T14:27:01.288Z,66.48
2022-11-05T14:29:44.198Z,66.68
2022-11-05T14:32:21.723Z,66.42
2022-11-05T14:35:23.022Z,66.71
2022-11-05T14:37:56.287Z,66.32
2022-11-05T14:40:30.977Z,66.42
2022-11-05T14:43:15.571Z,66.80
2022-11-05T14:46:01.409Z,66.96
2022-11-05T14:48:40.324Z,66.93
2022-11-05T14:51:28.107Z,67.50
2022-11-05T14:54:07.023Z,67.26
2022-11-05T14:56:59.421Z,68.13
2022-11-05T14:59:51.629Z,68.14
2022-11-05T15:02:55.810Z,68.28
2022-11-05T15:05:51.951Z,68.42
2022-11-05T15:08:26.660Z,67.97
2022-11-05T15:11:13.075Z,68.38
2022-11-05T15:13:53.946Z,68.75
2022-11-05T15:16:30.826Z,68.59
2022-11-05T15:19:04.368Z,68.55
2022-11-05T15:21:37.169Z,68.52
2022-11-05T15:24:15.709Z,68.49
2022-11-05T15:27:04.890Z,68.90
2022-11-05T15:29:36.848Z,68.50
2022-11-05T15:32:19.477Z,69.28
2022-11-05T15:34:53.652Z,69.09
2022-11-05T15:37:26.869Z,69.23
2022-11-05T15:39:59.500Z,69.45
2022-11-05T15:42:31.631Z,69.55
2022-11-05T15:45:04.011Z,69.71
2022-11-05T15:47:36.263Z,69.56
2022-11-05T15:50:15.138Z,70.24
2022-11-05T15:52:53.858Z,70.09
2022-11-05T15:55:26.189Z,69.81
2022-11-05T15:58:06.835Z,70.25
2022-11-05T16:00:38.939Z,70.22
2022-11-05T16:03:27.942Z,70.61
2022-11-05T16:06:00.795Z,70.27
2022-11-05T16:08:33.482Z,70.32
2022-11-05T16:11:05.646Z,70.51
2022-11-05T16:13:40.172Z,70.81
2022-11-05T16:16:14.957Z,70.91
2022-11-05T16:18:47.085Z,70.72
2022-11-05T16:21:22.669Z,70.87
2022-11-05T16:23:59.554Z,71.20
2022-11-05T16:29:37.160Z,71.11
2022-11-05T16:32:18.750Z,71.20
2022-11-05T16:34:52.760Z,71.18
2022-11-05T16:37:25.752Z,71.24
2022-11-05T16:39:57.979Z,71.42
2022-11-05T16:42:32.640Z,71.47
2022-11-05T16:45:05.486Z,71.17
2022-11-05T16:47:37.801Z,71.13
2022-11-05T16:50:13.789Z,71.53
2022-11-05T16:52:46.370Z,71.24
2022-11-05T16:55:19.252Z,71.35
2022-11-05T16:57:54.781Z,71.41
2022-11-05T17:00:26.746Z,71.32
2022-11-05T17:02:59.022Z,71.45
2022-11-05T17:05:31.610Z,71.30
2022-11-05T17:08:04.049Z,71.31
2022-11-05T17:10:36.268Z,71.53
2022-11-05T17:13:10.323Z,71.52
2022-11-05T17:15:43.778Z,71.47
2022-11-05T17:18:18.848Z,71.64
2022-11-05T17:20:53.526Z,71.50
2022-11-05T17:23:26.796Z,71.63
2022-11-05T17:26:12.249Z,71.90
2022-11-05T17:28:44.319Z,71.57
2022-11-05T17:31:17.375Z,71.56
2022-11-05T17:33:49.208Z,71.77
2022-11-05T17:36:21.088Z,71.79
2022-11-05T17:38:53.515Z,71.60
2022-11-05T17:41:25.424Z,71.91
2022-11-05T17:43:57.567Z,71.83
2022-11-05T17:46:30.453Z,71.77
2022-11-05T17:49:02.334Z,71.80
2022-11-05T17:51:34.906Z,72.03
2022-11-05T17:54:07.554Z,71.84
2022-11-05T17:56:44.719Z,72.09
2022-11-05T17:59:17.236Z,72.10
2022-11-05T18:01:49.167Z,71.90
2022-11-05T18:04:21.070Z,71.97
2022-11-05T18:06:52.919Z,72.17
2022-11-05T18:09:24.871Z,72.25
2022-11-05T18:11:56.734Z,71.99
2022-11-05T18:14:28.626Z,71.98
2022-11-05T18:17:00.530Z,72.25
2022-11-05T18:19:32.507Z,71.97
2022-11-05T18:22:04.527Z,72.23
2022-11-05T18:24:36.472Z,72.25
2022-11-05T18:27:08.398Z,72.21
2022-11-05T18:29:40.915Z,71.91
2022-11-05T18:32:12.850Z,72.15
2022-11-05T18:34:44.925Z,72.29
2022-11-05T18:37:17.201Z,72.15
2022-11-05T18:39:52.640Z,72.37
2022-11-05T18:42:25.411Z,72.23
2022-11-05T18:44:57.426Z,72.04
2022-11-05T18:47:29.351Z,72.11
2022-11-05T18:50:01.637Z,72.15
2022-11-05T18:52:33.635Z,71.79
2022-11-05T18:55:06.107Z,72.12
2022-11-05T18:57:38.139Z,71.87
2022-11-05T19:00:10.942Z,72.00
2022-11-05T19:02:42.887Z,71.85
2022-11-05T19:05:28.649Z,71.89
2022-11-05T19:08:01.897Z,71.84
2022-11-05T19:10:33.664Z,71.91
2022-11-05T19:13:05.461Z,71.69
2022-11-05T19:15:37.424Z,71.53
2022-11-05T19:18:11.314Z,71.63
2022-11-05T19:20:43.674Z,71.49
2022-11-05T19:23:15.517Z,71.61
2022-11-05T19:25:47.443Z,71.56
2022-11-05T19:28:19.350Z,71.37
2022-11-05T19:30:51.287Z,71.29
2022-11-05T19:33:23.289Z,71.24
2022-11-05T19:35:55.658Z,71.24
2022-11-05T19:38:27.608Z,71.00
2022-11-05T19:41:10.438Z,70.91
2022-11-05T19:43:42.695Z,71.06
2022-11-05T19:46:17.519Z,70.99
2022-11-05T19:48:50.025Z,70.92
2022-11-05T19:51:26.629Z,71.08
2022-11-05T19:54:00.728Z,71.00
2022-11-05T19:56:34.438Z,71.01
2022-11-05T19:59:07.062Z,71.39
2022-11-05T20:01:39.019Z,71.27
2022-11-05T20:04:12.072Z,71.14
2022-11-05T20:06:43.996Z,71.29
2022-11-05T20:09:23.494Z,71.25
2022-11-05T20:11:56.634Z,70.99
2022-11-05T20:14:29.652Z,71.08
2022-11-05T20:17:01.546Z,71.10
2022-11-05T20:19:33.710Z,70.92
2022-11-05T20:22:05.548Z,70.95
2022-11-05T20:24:37.687Z,70.72
2022-11-05T20:27:09.595Z,70.92
2022-11-05T20:29:41.511Z,70.84
2022-11-05T20:32:14.238Z,70.73
2022-11-05T20:34:46.096Z,70.81
2022-11-05T20:37:18.224Z,71.11
2022-11-05T20:39:50.110Z,71.05
2022-11-05T20:42:21.972Z,71.04
2022-11-05T20:44:53.833Z,71.28
2022-11-05T20:47:25.688Z,71.00
2022-11-05T20:49:58.478Z,71.04
2022-11-05T20:52:30.426Z,71.10
2022-11-05T20:55:03.208Z,71.00
2022-11-05T20:57:37.184Z,71.05
2022-11-05T21:00:09.572Z,71.21
2022-11-05T21:02:41.910Z,71.03
2022-11-05T21:05:13.887Z,71.01
2022-11-05T21:07:45.716Z,71.37
2022-11-05T21:10:17.703Z,71.45
2022-11-05T21:12:49.698Z,71.40
2022-11-05T21:15:23.140Z,71.56
2022-11-05T21:17:54.945Z,71.42
2022-11-05T21:20:27.008Z,71.45
2022-11-05T21:22:58.880Z,71.51
2022-11-05T21:25:30.735Z,71.49
2022-11-05T21:28:02.610Z,71.43
2022-11-05T21:30:36.796Z,71.30
2022-11-05T21:33:08.997Z,71.32
2022-11-05T21:35:45.417Z,71.09
2022-11-05T21:38:17.571Z,71.18
2022-11-05T21:40:49.555Z,71.14
2022-11-05T21:43:21.459Z,71.04
2022-11-05T21:45:53.634Z,71.06
2022-11-05T21:48:25.691Z,71.05
2022-11-05T21:51:16.375Z,71.03
2022-11-05T21:54:06.811Z,71.00
2022-11-05T21:56:57.577Z,70.99
2022-11-05T21:59:48.294Z,71.05
2022-11-05T22:02:22.710Z,70.97
2022-11-05T22:04:57.222Z,71.12
2022-11-05T22:07:31.954Z,71.27
2022-11-05T22:10:09.665Z,71.27
2022-11-05T22:12:45.000Z,71.16
2022-11-05T22:15:16.932Z,71.21
2022-11-05T22:17:50.600Z,71.21
2022-11-05T22:20:22.399Z,71.29
2022-11-05T22:22:55.018Z,71.22
2022-11-05T22:25:26.762Z,71.17
2022-11-05T22:27:58.567Z,71.20
2022-11-05T22:30:34.569Z,71.33
2022-11-05T22:33:06.448Z,71.21
2022-11-05T22:35:39.316Z,71.34
2022-11-05T22:38:12.657Z,71.39
2022-11-05T22:40:44.833Z,71.28
2022-11-05T22:43:16.896Z,71.21
2022-11-05T22:45:48.803Z,71.05
2022-11-05T22:48:20.705Z,71.31
2022-11-05T22:50:52.625Z,71.23
2022-11-05T22:53:24.559Z,71.16
2022-11-05T22:55:56.452Z,71.15
2022-11-05T22:58:28.217Z,71.13
2022-11-05T23:01:01.006Z,71.04
2022-11-05T23:03:33.396Z,70.96
2022-11-05T23:06:35.001Z,70.84
2022-11-05T23:09:42.087Z,70.80
2022-11-05T23:12:33.166Z,70.68
2022-11-05T23:15:07.153Z,70.69
2022-11-05T23:17:57.650Z,70.92
2022-11-05T23:20:48.133Z,70.87
2022-11-05T23:23:38.658Z,70.90
2022-11-05T23:26:29.417Z,70.75
2022-11-05T23:29:01.336Z,70.86
2022-11-05T23:31:51.625Z,70.99
2022-11-05T23:34:23.532Z,70.88
2022-11-05T23:37:13.705Z,70.98
2022-11-05T23:39:48.997Z,71.02
2022-11-05T23:42:39.756Z,70.97
2022-11-05T23:45:30.679Z,70.80
2022-11-05T23:48:19.180Z,71.08
2022-11-05T23:51:05.923Z,70.91
2022-11-05T23:53:40.108Z,70.82
2022-11-05T23:56:14.620Z,70.83
2022-11-05T23:58:46.582Z,70.89
